sensor_id;sensor_type;location;lat;lon;timestamp;temperature;humidity
1377;DHT22;682;52.502;13.488;2023-09-07T00:00:41;20.00;1.00
1377;DHT22;682;52.502;13.488;2023-09-07T00:03:08;20.10;1.00
1377;DHT22;682;52.502;13.488;2023-09-07T00:05:35;20.10;1.00
1377;DHT22;682;52.502;13.488;2023-09-07T00:08:06;20.00;1.00
1377;DHT22;682;52.502;13.488;2023-09-07T00:10:33;20.00;1.00
1377;DHT22;682;52.502;13.488;2023-09-07T00:13:01;20.00;1.00
1377;DHT22;682;52.502;13.488;2023-09-07T00:15:29;20.00;1.00
1377;DHT22;682;52.502;13.488;2023-09-07T00:17:56;20.00;1.00
1377;DHT22;682;52.502;13.488;2023-09-07T00:20:23;19.90;1.00
1377;DHT22;682;52.502;13.488;2023-09-07T00:22:50;19.90;1.00
1377;DHT22;682;52.502;13.488;2023-09-07T00:25:18;19.90;1.00
1377;DHT22;682;52.502;13.488;2023-09-07T00:27:46;19.90;1.00
1377;DHT22;682;52.502;13.488;2023-09-07T00:30:12;19.80;1.00
1377;DHT22;682;52.502;13.488;2023-09-07T00:32:40;19.80;1.00
1377;DHT22;682;52.502;13.488;2023-09-07T00:35:08;19.90;1.00
1377;DHT22;682;52.502;13.488;2023-09-07T00:37:35;19.80;1.00
1377;DHT22;682;52.502;13.488;2023-09-07T00:40:02;19.80;1.00
1377;DHT22;682;52.502;13.488;2023-09-07T00:42:31;19.70;1.00
1377;DHT22;682;52.502;13.488;2023-09-07T00:44:58;19.70;1.00
1377;DHT22;682;52.502;13.488;2023-09-07T00:57:45;19.70;1.00
1377;DHT22;682;52.502;13.488;2023-09-07T01:00:13;19.60;1.00
1377;DHT22;682;52.502;13.488;2023-09-07T01:02:40;19.60;1.00
1377;DHT22;682;52.502;13.488;2023-09-07T01:05:11;19.50;1.00
1377;DHT22;682;52.502;13.488;2023-09-07T01:07:42;19.50;1.00
1377;DHT22;682;52.502;13.488;2023-09-07T01:10:11;19.50;1.00
1377;DHT22;682;52.502;13.488;2023-09-07T01:12:39;19.50;1.00
1377;DHT22;682;52.502;13.488;2023-09-07T01:15:08;19.50;1.00
1377;DHT22;682;52.502;13.488;2023-09-07T01:17:36;19.50;1.00
1377;DHT22;682;52.502;13.488;2023-09-07T01:20:05;19.50;1.00
1377;DHT22;682;52.502;13.488;2023-09-07T01:22:37;19.50;1.00
1377;DHT22;682;52.502;13.488;2023-09-07T01:25:06;19.50;1.00
1377;DHT22;682;52.502;13.488;2023-09-07T01:27:34;19.40;1.00
1377;DHT22;682;52.502;13.488;2023-09-07T01:30:01;19.40;1.00
1377;DHT22;682;52.502;13.488;2023-09-07T01:32:29;19.30;1.00
1377;DHT22;682;52.502;13.488;2023-09-07T01:34:57;19.30;1.00
1377;DHT22;682;52.502;13.488;2023-09-07T01:37:24;19.20;1.00
1377;DHT22;682;52.502;13.488;2023-09-07T01:39:52;19.10;1.00
1377;DHT22;682;52.502;13.488;2023-09-07T01:42:19;19.10;1.00
1377;DHT22;682;52.502;13.488;2023-09-07T01:44:47;19.10;1.00
1377;DHT22;682;52.502;13.488;2023-09-07T01:47:14;19.10;1.00
1377;DHT22;682;52.502;13.488;2023-09-07T01:49:41;19.10;1.00
1377;DHT22;682;52.502;13.488;2023-09-07T01:52:08;19.00;1.00
1377;DHT22;682;52.502;13.488;2023-09-07T01:54:35;19.00;1.00
1377;DHT22;682;52.502;13.488;2023-09-07T01:57:04;19.00;1.00
1377;DHT22;682;52.502;13.488;2023-09-07T01:59:31;19.00;1.00
1377;DHT22;682;52.502;13.488;2023-09-07T02:01:57;18.90;1.00
1377;DHT22;682;52.502;13.488;2023-09-07T02:04:24;18.90;1.00
1377;DHT22;682;52.502;13.488;2023-09-07T02:06:51;18.90;1.00
1377;DHT22;682;52.502;13.488;2023-09-07T02:09:18;18.90;1.00
1377;DHT22;682;52.502;13.488;2023-09-07T02:11:45;18.90;1.00
1377;DHT22;682;52.502;13.488;2023-09-07T02:14:13;18.90;1.00
1377;DHT22;682;52.502;13.488;2023-09-07T02:16:40;18.90;1.00
1377;DHT22;682;52.502;13.488;2023-09-07T02:19:07;18.80;1.00
1377;DHT22;682;52.502;13.488;2023-09-07T02:21:34;18.70;1.00
1377;DHT22;682;52.502;13.488;2023-09-07T02:24:01;18.70;1.00
1377;DHT22;682;52.502;13.488;2023-09-07T02:26:28;18.70;1.00
1377;DHT22;682;52.502;13.488;2023-09-07T02:28:55;18.70;1.00
1377;DHT22;682;52.502;13.488;2023-09-07T02:31:23;18.70;1.00
1377;DHT22;682;52.502;13.488;2023-09-07T02:33:50;18.60;1.00
1377;DHT22;682;52.502;13.488;2023-09-07T02:36:17;18.60;1.00
1377;DHT22;682;52.502;13.488;2023-09-07T02:38:44;18.60;1.00
1377;DHT22;682;52.502;13.488;2023-09-07T02:41:11;18.60;1.00
1377;DHT22;682;52.502;13.488;2023-09-07T02:43:40;18.60;1.00
1377;DHT22;682;52.502;13.488;2023-09-07T02:46:09;18.60;1.00
1377;DHT22;682;52.502;13.488;2023-09-07T02:48:37;18.50;1.00
1377;DHT22;682;52.502;13.488;2023-09-07T02:51:04;18.50;1.00
1377;DHT22;682;52.502;13.488;2023-09-07T02:53:31;18.40;1.00
1377;DHT22;682;52.502;13.488;2023-09-07T02:55:58;18.40;1.00
1377;DHT22;682;52.502;13.488;2023-09-07T02:58:27;18.40;1.00
1377;DHT22;682;52.502;13.488;2023-09-07T03:00:54;18.30;1.00
1377;DHT22;682;52.502;13.488;2023-09-07T03:03:21;18.30;1.00
1377;DHT22;682;52.502;13.488;2023-09-07T03:05:49;18.30;1.00
1377;DHT22;682;52.502;13.488;2023-09-07T03:08:16;18.30;1.00
1377;DHT22;682;52.502;13.488;2023-09-07T03:10:43;18.20;1.00
1377;DHT22;682;52.502;13.488;2023-09-07T03:13:10;18.20;1.00
1377;DHT22;682;52.502;13.488;2023-09-07T03:15:37;18.10;1.00
1377;DHT22;682;52.502;13.488;2023-09-07T03:18:04;18.20;1.00
1377;DHT22;682;52.502;13.488;2023-09-07T03:20:33;18.20;1.00
1377;DHT22;682;52.502;13.488;2023-09-07T03:23:02;18.10;1.00
1377;DHT22;682;52.502;13.488;2023-09-07T03:25:29;18.10;1.00
1377;DHT22;682;52.502;13.488;2023-09-07T03:27:56;18.00;1.00
1377;DHT22;682;52.502;13.488;2023-09-07T03:30:23;18.00;1.00
1377;DHT22;682;52.502;13.488;2023-09-07T03:32:50;18.00;1.00
1377;DHT22;682;52.502;13.488;2023-09-07T03:35:17;18.00;1.00
1377;DHT22;682;52.502;13.488;2023-09-07T03:37:44;17.90;1.00
1377;DHT22;682;52.502;13.488;2023-09-07T03:40:12;17.90;1.00
1377;DHT22;682;52.502;13.488;2023-09-07T03:42:39;17.90;1.00
1377;DHT22;682;52.502;13.488;2023-09-07T03:45:06;17.90;1.00
1377;DHT22;682;52.502;13.488;2023-09-07T03:47:33;17.80;1.00
1377;DHT22;682;52.502;13.488;2023-09-07T03:50:00;17.80;1.00
1377;DHT22;682;52.502;13.488;2023-09-07T03:52:27;17.80;1.00
1377;DHT22;682;52.502;13.488;2023-09-07T03:54:54;17.80;1.00
1377;DHT22;682;52.502;13.488;2023-09-07T03:57:23;17.80;1.00
1377;DHT22;682;52.502;13.488;2023-09-07T03:59:50;17.90;1.00
1377;DHT22;682;52.502;13.488;2023-09-07T04:02:18;17.90;1.00
1377;DHT22;682;52.502;13.488;2023-09-07T04:04:48;17.80;1.00
1377;DHT22;682;52.502;13.488;2023-09-07T04:07:15;17.80;1.00
1377;DHT22;682;52.502;13.488;2023-09-07T04:09:43;17.80;1.00
1377;DHT22;682;52.502;13.488;2023-09-07T04:12:10;17.80;1.00
1377;DHT22;682;52.502;13.488;2023-09-07T04:14:39;17.80;1.00
1377;DHT22;682;52.502;13.488;2023-09-07T04:17:07;17.80;1.00
1377;DHT22;682;52.502;13.488;2023-09-07T04:19:34;17.70;1.00
1377;DHT22;682;52.502;13.488;2023-09-07T04:22:01;17.70;1.00
1377;DHT22;682;52.502;13.488;2023-09-07T04:24:28;17.80;1.00
1377;DHT22;682;52.502;13.488;2023-09-07T04:26:58;17.70;1.00
1377;DHT22;682;52.502;13.488;2023-09-07T04:29:25;17.80;1.00
1377;DHT22;682;52.502;13.488;2023-09-07T04:31:53;17.70;1.00
1377;DHT22;682;52.502;13.488;2023-09-07T04:34:21;17.70;1.00
1377;DHT22;682;52.502;13.488;2023-09-07T04:36:48;17.70;1.00
1377;DHT22;682;52.502;13.488;2023-09-07T04:39:16;17.60;1.00
1377;DHT22;682;52.502;13.488;2023-09-07T04:41:44;17.60;1.00
1377;DHT22;682;52.502;13.488;2023-09-07T04:44:11;17.60;1.00
1377;DHT22;682;52.502;13.488;2023-09-07T04:46:38;17.70;1.00
1377;DHT22;682;52.502;13.488;2023-09-07T04:49:07;17.60;1.00
1377;DHT22;682;52.502;13.488;2023-09-07T04:51:34;17.60;1.00
1377;DHT22;682;52.502;13.488;2023-09-07T04:54:01;17.60;1.00
1377;DHT22;682;52.502;13.488;2023-09-07T04:56:28;17.70;1.00
1377;DHT22;682;52.502;13.488;2023-09-07T04:58:55;17.70;1.00
1377;DHT22;682;52.502;13.488;2023-09-07T05:01:22;17.70;1.00
1377;DHT22;682;52.502;13.488;2023-09-07T05:03:49;17.70;1.00
1377;DHT22;682;52.502;13.488;2023-09-07T05:06:18;17.70;1.00
1377;DHT22;682;52.502;13.488;2023-09-07T05:08:47;17.80;1.00
1377;DHT22;682;52.502;13.488;2023-09-07T05:11:14;17.80;1.00
1377;DHT22;682;52.502;13.488;2023-09-07T05:13:41;17.80;1.00
1377;DHT22;682;52.502;13.488;2023-09-07T05:16:08;17.90;1.00
1377;DHT22;682;52.502;13.488;2023-09-07T05:18:35;17.90;1.00
1377;DHT22;682;52.502;13.488;2023-09-07T05:21:11;18.00;1.00
1377;DHT22;682;52.502;13.488;2023-09-07T05:23:40;18.10;1.00
1377;DHT22;682;52.502;13.488;2023-09-07T05:26:07;18.10;1.00
1377;DHT22;682;52.502;13.488;2023-09-07T05:28:36;18.20;1.00
1377;DHT22;682;52.502;13.488;2023-09-07T05:31:04;18.20;1.00
1377;DHT22;682;52.502;13.488;2023-09-07T05:33:31;18.30;1.00
1377;DHT22;682;52.502;13.488;2023-09-07T05:35:58;18.40;1.00
1377;DHT22;682;52.502;13.488;2023-09-07T05:38:25;18.40;1.00
1377;DHT22;682;52.502;13.488;2023-09-07T05:40:54;18.50;1.00
1377;DHT22;682;52.502;13.488;2023-09-07T05:43:21;18.60;1.00
1377;DHT22;682;52.502;13.488;2023-09-07T05:45:48;18.70;1.00
1377;DHT22;682;52.502;13.488;2023-09-07T05:48:15;18.80;1.00
1377;DHT22;682;52.502;13.488;2023-09-07T05:50:43;18.90;1.00
1377;DHT22;682;52.502;13.488;2023-09-07T05:53:11;19.00;1.00
1377;DHT22;682;52.502;13.488;2023-09-07T05:55:38;19.00;1.00
1377;DHT22;682;52.502;13.488;2023-09-07T05:58:09;19.20;1.00
1377;DHT22;682;52.502;13.488;2023-09-07T06:00:38;19.20;1.00
1377;DHT22;682;52.502;13.488;2023-09-07T06:03:06;19.20;1.00
1377;DHT22;682;52.502;13.488;2023-09-07T06:05:34;19.30;1.00
1377;DHT22;682;52.502;13.488;2023-09-07T06:08:01;19.30;1.00
1377;DHT22;682;52.502;13.488;2023-09-07T06:10:29;19.40;1.00
1377;DHT22;682;52.502;13.488;2023-09-07T06:12:56;19.50;1.00
1377;DHT22;682;52.502;13.488;2023-09-07T06:15:26;19.50;1.00
1377;DHT22;682;52.502;13.488;2023-09-07T06:17:53;19.50;1.00
1377;DHT22;682;52.502;13.488;2023-09-07T06:20:20;19.60;1.00
1377;DHT22;682;52.502;13.488;2023-09-07T06:22:48;19.70;1.00
1377;DHT22;682;52.502;13.488;2023-09-07T06:25:16;19.70;1.00
1377;DHT22;682;52.502;13.488;2023-09-07T06:27:43;19.80;1.00
1377;DHT22;682;52.502;13.488;2023-09-07T06:30:11;19.90;1.00
1377;DHT22;682;52.502;13.488;2023-09-07T06:32:39;19.90;1.00
1377;DHT22;682;52.502;13.488;2023-09-07T06:35:08;20.00;1.00
1377;DHT22;682;52.502;13.488;2023-09-07T06:37:35;20.10;1.00
1377;DHT22;682;52.502;13.488;2023-09-07T06:40:07;20.20;1.00
1377;DHT22;682;52.502;13.488;2023-09-07T06:42:34;20.20;1.00
1377;DHT22;682;52.502;13.488;2023-09-07T06:45:00;20.30;1.00
1377;DHT22;682;52.502;13.488;2023-09-07T06:47:28;20.40;1.00
1377;DHT22;682;52.502;13.488;2023-09-07T06:49:57;20.50;1.00
1377;DHT22;682;52.502;13.488;2023-09-07T06:52:24;20.70;1.00
1377;DHT22;682;52.502;13.488;2023-09-07T06:54:52;20.70;1.00
1377;DHT22;682;52.502;13.488;2023-09-07T06:57:19;20.80;1.00
1377;DHT22;682;52.502;13.488;2023-09-07T06:59:47;20.80;1.00
1377;DHT22;682;52.502;13.488;2023-09-07T07:02:14;20.80;1.00
1377;DHT22;682;52.502;13.488;2023-09-07T07:04:41;20.90;1.00
1377;DHT22;682;52.502;13.488;2023-09-07T07:07:12;21.00;1.00
1377;DHT22;682;52.502;13.488;2023-09-07T07:09:39;21.10;1.00
1377;DHT22;682;52.502;13.488;2023-09-07T07:12:06;21.20;1.00
1377;DHT22;682;52.502;13.488;2023-09-07T07:14:33;21.30;1.00
1377;DHT22;682;52.502;13.488;2023-09-07T07:17:00;21.40;1.00
1377;DHT22;682;52.502;13.488;2023-09-07T07:19:30;21.50;1.00
1377;DHT22;682;52.502;13.488;2023-09-07T07:21:57;21.70;1.00
1377;DHT22;682;52.502;13.488;2023-09-07T07:24:26;21.90;1.00
1377;DHT22;682;52.502;13.488;2023-09-07T07:26:54;22.00;1.00
1377;DHT22;682;52.502;13.488;2023-09-07T07:29:21;22.20;1.00
1377;DHT22;682;52.502;13.488;2023-09-07T07:31:48;22.30;1.00
1377;DHT22;682;52.502;13.488;2023-09-07T07:34:15;22.50;1.00
1377;DHT22;682;52.502;13.488;2023-09-07T07:36:42;22.70;1.00
1377;DHT22;682;52.502;13.488;2023-09-07T07:39:09;22.80;1.00
1377;DHT22;682;52.502;13.488;2023-09-07T07:41:37;22.80;1.00
1377;DHT22;682;52.502;13.488;2023-09-07T07:44:04;22.90;1.00
1377;DHT22;682;52.502;13.488;2023-09-07T07:46:31;23.00;1.00
1377;DHT22;682;52.502;13.488;2023-09-07T07:48:58;23.20;1.00
1377;DHT22;682;52.502;13.488;2023-09-07T07:51:25;23.30;1.00
1377;DHT22;682;52.502;13.488;2023-09-07T07:53:54;23.40;1.00
1377;DHT22;682;52.502;13.488;2023-09-07T07:56:22;23.40;1.00
1377;DHT22;682;52.502;13.488;2023-09-07T07:58:51;23.60;1.00
1377;DHT22;682;52.502;13.488;2023-09-07T08:01:19;23.70;1.00
1377;DHT22;682;52.502;13.488;2023-09-07T08:03:46;23.80;1.00
1377;DHT22;682;52.502;13.488;2023-09-07T08:06:14;24.00;1.00
1377;DHT22;682;52.502;13.488;2023-09-07T08:08:41;24.00;1.00
1377;DHT22;682;52.502;13.488;2023-09-07T08:11:09;24.10;1.00
1377;DHT22;682;52.502;13.488;2023-09-07T08:13:36;24.20;1.00
1377;DHT22;682;52.502;13.488;2023-09-07T08:16:05;24.30;1.00
1377;DHT22;682;52.502;13.488;2023-09-07T08:18:33;24.30;1.00
1377;DHT22;682;52.502;13.488;2023-09-07T08:21:01;24.40;1.00
1377;DHT22;682;52.502;13.488;2023-09-07T08:23:29;24.60;1.00
1377;DHT22;682;52.502;13.488;2023-09-07T08:25:56;24.70;1.00
1377;DHT22;682;52.502;13.488;2023-09-07T08:28:24;24.80;1.00
1377;DHT22;682;52.502;13.488;2023-09-07T08:30:51;24.90;1.00
1377;DHT22;682;52.502;13.488;2023-09-07T08:33:21;25.10;1.00
1377;DHT22;682;52.502;13.488;2023-09-07T08:35:55;25.30;1.00
1377;DHT22;682;52.502;13.488;2023-09-07T08:38:23;25.30;1.00
1377;DHT22;682;52.502;13.488;2023-09-07T08:40:54;25.50;1.00
1377;DHT22;682;52.502;13.488;2023-09-07T08:43:23;25.50;1.00
1377;DHT22;682;52.502;13.488;2023-09-07T08:45:55;25.60;1.00
1377;DHT22;682;52.502;13.488;2023-09-07T08:48:27;25.70;1.00
1377;DHT22;682;52.502;13.488;2023-09-07T08:50:56;25.80;1.00
1377;DHT22;682;52.502;13.488;2023-09-07T08:53:23;26.00;1.00
1377;DHT22;682;52.502;13.488;2023-09-07T08:55:51;26.20;1.00
1377;DHT22;682;52.502;13.488;2023-09-07T08:58:18;26.20;1.00
1377;DHT22;682;52.502;13.488;2023-09-07T09:00:45;26.30;1.00
1377;DHT22;682;52.502;13.488;2023-09-07T09:03:14;26.40;1.00
1377;DHT22;682;52.502;13.488;2023-09-07T09:05:43;26.50;1.00
1377;DHT22;682;52.502;13.488;2023-09-07T09:08:11;26.70;1.00
1377;DHT22;682;52.502;13.488;2023-09-07T09:10:38;26.90;1.00
1377;DHT22;682;52.502;13.488;2023-09-07T09:13:06;26.90;1.00
1377;DHT22;682;52.502;13.488;2023-09-07T09:15:33;27.00;1.00
1377;DHT22;682;52.502;13.488;2023-09-07T09:18:09;27.30;1.00
1377;DHT22;682;52.502;13.488;2023-09-07T09:20:37;27.70;1.00
1377;DHT22;682;52.502;13.488;2023-09-07T09:23:06;28.80;1.00
1377;DHT22;682;52.502;13.488;2023-09-07T09:25:33;30.20;1.00
1377;DHT22;682;52.502;13.488;2023-09-07T09:28:00;31.30;1.00
1377;DHT22;682;52.502;13.488;2023-09-07T09:30:28;32.60;1.00
1377;DHT22;682;52.502;13.488;2023-09-07T09:32:55;33.70;1.00
1377;DHT22;682;52.502;13.488;2023-09-07T09:35:22;34.30;1.00
1377;DHT22;682;52.502;13.488;2023-09-07T09:37:50;34.60;1.00
1377;DHT22;682;52.502;13.488;2023-09-07T09:40:21;34.90;1.00
1377;DHT22;682;52.502;13.488;2023-09-07T09:42:49;35.70;1.00
1377;DHT22;682;52.502;13.488;2023-09-07T09:45:19;35.40;1.00
1377;DHT22;682;52.502;13.488;2023-09-07T09:47:47;35.30;1.00
1377;DHT22;682;52.502;13.488;2023-09-07T09:50:16;35.80;1.00
1377;DHT22;682;52.502;13.488;2023-09-07T09:52:45;35.60;1.00
1377;DHT22;682;52.502;13.488;2023-09-07T09:55:13;35.70;1.00
1377;DHT22;682;52.502;13.488;2023-09-07T09:57:42;34.50;1.00
1377;DHT22;682;52.502;13.488;2023-09-07T10:00:11;34.10;1.00
1377;DHT22;682;52.502;13.488;2023-09-07T10:02:57;34.90;1.00
1377;DHT22;682;52.502;13.488;2023-09-07T10:05:27;35.70;1.00
1377;DHT22;682;52.502;13.488;2023-09-07T10:08:00;36.10;1.00
1377;DHT22;682;52.502;13.488;2023-09-07T10:10:34;36.10;1.00
1377;DHT22;682;52.502;13.488;2023-09-07T10:13:03;35.90;1.00
1377;DHT22;682;52.502;13.488;2023-09-07T10:15:31;36.80;1.00
1377;DHT22;682;52.502;13.488;2023-09-07T10:18:10;37.00;1.00
1377;DHT22;682;52.502;13.488;2023-09-07T10:20:49;37.40;1.00
1377;DHT22;682;52.502;13.488;2023-09-07T10:23:17;38.10;1.00
1377;DHT22;682;52.502;13.488;2023-09-07T10:25:47;38.80;1.00
1377;DHT22;682;52.502;13.488;2023-09-07T10:28:20;39.10;1.00
1377;DHT22;682;52.502;13.488;2023-09-07T10:30:58;39.30;1.00
1377;DHT22;682;52.502;13.488;2023-09-07T10:33:26;38.20;1.00
1377;DHT22;682;52.502;13.488;2023-09-07T10:35:55;37.40;1.00
1377;DHT22;682;52.502;13.488;2023-09-07T10:38:24;37.40;1.00
1377;DHT22;682;52.502;13.488;2023-09-07T10:40:55;37.30;1.00
1377;DHT22;682;52.502;13.488;2023-09-07T10:43:26;37.20;1.00
1377;DHT22;682;52.502;13.488;2023-09-07T10:45:53;38.00;1.00
1377;DHT22;682;52.502;13.488;2023-09-07T10:48:21;38.80;1.00
1377;DHT22;682;52.502;13.488;2023-09-07T10:50:48;39.30;1.00
1377;DHT22;682;52.502;13.488;2023-09-07T10:53:25;38.90;1.00
1377;DHT22;682;52.502;13.488;2023-09-07T10:55:53;39.10;1.00
1377;DHT22;682;52.502;13.488;2023-09-07T10:58:27;39.50;1.00
1377;DHT22;682;52.502;13.488;2023-09-07T11:00:54;39.70;1.00
1377;DHT22;682;52.502;13.488;2023-09-07T11:03:22;39.50;1.00
1377;DHT22;682;52.502;13.488;2023-09-07T11:05:49;39.50;1.00
1377;DHT22;682;52.502;13.488;2023-09-07T11:08:18;40.40;1.00
1377;DHT22;682;52.502;13.488;2023-09-07T11:10:45;40.50;1.00
1377;DHT22;682;52.502;13.488;2023-09-07T11:13:12;40.50;1.00
1377;DHT22;682;52.502;13.488;2023-09-07T11:15:42;40.60;1.00
1377;DHT22;682;52.502;13.488;2023-09-07T11:18:09;40.60;1.00
1377;DHT22;682;52.502;13.488;2023-09-07T11:20:36;40.60;1.00
1377;DHT22;682;52.502;13.488;2023-09-07T11:23:05;41.00;1.00
1377;DHT22;682;52.502;13.488;2023-09-07T11:25:36;40.50;1.00
1377;DHT22;682;52.502;13.488;2023-09-07T11:28:04;40.60;1.00
1377;DHT22;682;52.502;13.488;2023-09-07T11:30:31;40.40;1.00
1377;DHT22;682;52.502;13.488;2023-09-07T11:33:05;40.80;1.00
1377;DHT22;682;52.502;13.488;2023-09-07T11:35:32;41.50;1.00
1377;DHT22;682;52.502;13.488;2023-09-07T11:38:00;41.40;1.00
1377;DHT22;682;52.502;13.488;2023-09-07T11:40:29;41.30;1.00
1377;DHT22;682;52.502;13.488;2023-09-07T11:42:56;41.20;1.00
1377;DHT22;682;52.502;13.488;2023-09-07T11:45:24;41.40;1.00
1377;DHT22;682;52.502;13.488;2023-09-07T11:47:51;42.10;1.00
1377;DHT22;682;52.502;13.488;2023-09-07T11:50:22;42.40;1.00
1377;DHT22;682;52.502;13.488;2023-09-07T11:52:50;42.50;1.00
1377;DHT22;682;52.502;13.488;2023-09-07T11:55:17;42.20;1.00
1377;DHT22;682;52.502;13.488;2023-09-07T11:57:45;41.50;1.00
1377;DHT22;682;52.502;13.488;2023-09-07T12:00:12;41.90;1.00
1377;DHT22;682;52.502;13.488;2023-09-07T12:02:40;41.90;1.00
1377;DHT22;682;52.502;13.488;2023-09-07T12:05:07;42.50;1.00
1377;DHT22;682;52.502;13.488;2023-09-07T12:07:36;42.50;1.00
1377;DHT22;682;52.502;13.488;2023-09-07T12:10:04;42.00;1.00
1377;DHT22;682;52.502;13.488;2023-09-07T12:12:31;41.70;1.00
1377;DHT22;682;52.502;13.488;2023-09-07T12:14:58;42.20;1.00
1377;DHT22;682;52.502;13.488;2023-09-07T12:17:25;42.50;1.00
1377;DHT22;682;52.502;13.488;2023-09-07T12:19:52;42.00;1.00
1377;DHT22;682;52.502;13.488;2023-09-07T12:22:19;40.80;1.00
1377;DHT22;682;52.502;13.488;2023-09-07T12:24:50;40.60;1.00
1377;DHT22;682;52.502;13.488;2023-09-07T12:27:17;40.60;1.00
1377;DHT22;682;52.502;13.488;2023-09-07T12:29:44;40.90;1.00
1377;DHT22;682;52.502;13.488;2023-09-07T12:32:11;41.40;1.00
1377;DHT22;682;52.502;13.488;2023-09-07T12:34:39;41.90;1.00
1377;DHT22;682;52.502;13.488;2023-09-07T12:37:06;42.60;1.00
1377;DHT22;682;52.502;13.488;2023-09-07T12:39:34;42.50;1.00
1377;DHT22;682;52.502;13.488;2023-09-07T12:42:02;43.20;1.00
1377;DHT22;682;52.502;13.488;2023-09-07T12:44:29;42.90;1.00
1377;DHT22;682;52.502;13.488;2023-09-07T12:46:59;43.30;1.00
1377;DHT22;682;52.502;13.488;2023-09-07T12:49:28;43.60;1.00
1377;DHT22;682;52.502;13.488;2023-09-07T12:51:56;43.60;1.00
1377;DHT22;682;52.502;13.488;2023-09-07T12:54:23;43.40;1.00
1377;DHT22;682;52.502;13.488;2023-09-07T12:56:49;43.30;1.00
1377;DHT22;682;52.502;13.488;2023-09-07T12:59:18;43.30;1.00
1377;DHT22;682;52.502;13.488;2023-09-07T13:01:45;42.60;1.00
1377;DHT22;682;52.502;13.488;2023-09-07T13:04:12;42.80;1.00
1377;DHT22;682;52.502;13.488;2023-09-07T13:06:39;42.90;1.00
1377;DHT22;682;52.502;13.488;2023-09-07T13:09:06;42.70;1.00
1377;DHT22;682;52.502;13.488;2023-09-07T13:11:35;42.80;1.00
1377;DHT22;682;52.502;13.488;2023-09-07T13:14:05;43.10;1.00
1377;DHT22;682;52.502;13.488;2023-09-07T13:16:35;43.40;1.00
1377;DHT22;682;52.502;13.488;2023-09-07T13:19:02;43.90;1.00
1377;DHT22;682;52.502;13.488;2023-09-07T13:21:31;44.10;1.00
1377;DHT22;682;52.502;13.488;2023-09-07T13:24:00;44.10;1.00
1377;DHT22;682;52.502;13.488;2023-09-07T13:26:26;43.90;1.00
1377;DHT22;682;52.502;13.488;2023-09-07T13:28:54;43.50;1.00
1377;DHT22;682;52.502;13.488;2023-09-07T13:31:20;42.50;1.00
1377;DHT22;682;52.502;13.488;2023-09-07T13:33:49;40.70;1.00
1377;DHT22;682;52.502;13.488;2023-09-07T13:36:16;38.40;1.00
1377;DHT22;682;52.502;13.488;2023-09-07T13:38:43;37.00;1.00
1377;DHT22;682;52.502;13.488;2023-09-07T13:41:10;35.80;1.00
1377;DHT22;682;52.502;13.488;2023-09-07T13:43:37;34.90;1.00
1377;DHT22;682;52.502;13.488;2023-09-07T13:46:04;33.90;1.00
1377;DHT22;682;52.502;13.488;2023-09-07T13:48:31;33.20;1.00
1377;DHT22;682;52.502;13.488;2023-09-07T13:51:00;32.70;1.00
1377;DHT22;682;52.502;13.488;2023-09-07T13:53:27;32.50;1.00
1377;DHT22;682;52.502;13.488;2023-09-07T13:55:54;32.00;1.00
1377;DHT22;682;52.502;13.488;2023-09-07T13:58:21;31.80;1.00
1377;DHT22;682;52.502;13.488;2023-09-07T14:00:48;31.70;1.00
1377;DHT22;682;52.502;13.488;2023-09-07T14:03:16;31.70;1.00
1377;DHT22;682;52.502;13.488;2023-09-07T14:05:43;31.50;1.00
1377;DHT22;682;52.502;13.488;2023-09-07T14:08:12;31.20;1.00
1377;DHT22;682;52.502;13.488;2023-09-07T14:10:41;31.10;1.00
1377;DHT22;682;52.502;13.488;2023-09-07T14:13:08;30.80;1.00
1377;DHT22;682;52.502;13.488;2023-09-07T14:15:35;30.90;1.00
1377;DHT22;682;52.502;13.488;2023-09-07T14:18:02;30.90;1.00
1377;DHT22;682;52.502;13.488;2023-09-07T14:20:29;31.00;1.00
1377;DHT22;682;52.502;13.488;2023-09-07T14:22:56;30.90;1.00
1377;DHT22;682;52.502;13.488;2023-09-07T14:25:25;30.60;1.00
1377;DHT22;682;52.502;13.488;2023-09-07T14:27:52;30.50;1.00
1377;DHT22;682;52.502;13.488;2023-09-07T14:30:19;30.60;1.00
1377;DHT22;682;52.502;13.488;2023-09-07T14:32:46;30.50;1.00
1377;DHT22;682;52.502;13.488;2023-09-07T14:35:14;30.50;1.00
1377;DHT22;682;52.502;13.488;2023-09-07T14:37:41;30.50;1.00
1377;DHT22;682;52.502;13.488;2023-09-07T14:40:09;30.50;1.00
1377;DHT22;682;52.502;13.488;2023-09-07T14:42:38;30.50;1.00
1377;DHT22;682;52.502;13.488;2023-09-07T14:45:06;30.60;1.00
1377;DHT22;682;52.502;13.488;2023-09-07T14:47:33;30.70;1.00
1377;DHT22;682;52.502;13.488;2023-09-07T14:50:01;30.60;1.00
1377;DHT22;682;52.502;13.488;2023-09-07T14:52:29;30.50;1.00
1377;DHT22;682;52.502;13.488;2023-09-07T14:54:57;30.40;1.00
1377;DHT22;682;52.502;13.488;2023-09-07T14:57:24;30.40;1.00
1377;DHT22;682;52.502;13.488;2023-09-07T14:59:53;30.40;1.00
1377;DHT22;682;52.502;13.488;2023-09-07T15:02:20;30.20;1.00
1377;DHT22;682;52.502;13.488;2023-09-07T15:04:46;30.10;1.00
1377;DHT22;682;52.502;13.488;2023-09-07T15:07:13;30.00;1.00
1377;DHT22;682;52.502;13.488;2023-09-07T15:09:40;30.00;1.00
1377;DHT22;682;52.502;13.488;2023-09-07T15:12:07;29.90;1.00
1377;DHT22;682;52.502;13.488;2023-09-07T15:14:34;29.80;1.00
1377;DHT22;682;52.502;13.488;2023-09-07T15:17:03;29.80;1.00
1377;DHT22;682;52.502;13.488;2023-09-07T15:19:30;29.80;1.00
1377;DHT22;682;52.502;13.488;2023-09-07T15:21:59;29.90;1.00
1377;DHT22;682;52.502;13.488;2023-09-07T15:24:26;29.90;1.00
1377;DHT22;682;52.502;13.488;2023-09-07T15:26:53;29.80;1.00
1377;DHT22;682;52.502;13.488;2023-09-07T15:29:20;29.80;1.00
1377;DHT22;682;52.502;13.488;2023-09-07T15:31:48;29.70;1.00
1377;DHT22;682;52.502;13.488;2023-09-07T15:34:16;29.50;1.00
1377;DHT22;682;52.502;13.488;2023-09-07T15:36:44;29.50;1.00
1377;DHT22;682;52.502;13.488;2023-09-07T15:39:10;29.40;1.00
1377;DHT22;682;52.502;13.488;2023-09-07T15:41:38;29.40;1.00
1377;DHT22;682;52.502;13.488;2023-09-07T15:44:05;29.30;1.00
1377;DHT22;682;52.502;13.488;2023-09-07T15:46:31;29.20;1.00
1377;DHT22;682;52.502;13.488;2023-09-07T15:48:58;29.20;1.00
1377;DHT22;682;52.502;13.488;2023-09-07T15:51:27;29.20;1.00
1377;DHT22;682;52.502;13.488;2023-09-07T15:53:54;29.10;1.00
1377;DHT22;682;52.502;13.488;2023-09-07T15:56:20;29.00;1.00
1377;DHT22;682;52.502;13.488;2023-09-07T15:58:48;28.90;1.00
1377;DHT22;682;52.502;13.488;2023-09-07T16:01:15;28.90;1.00
1377;DHT22;682;52.502;13.488;2023-09-07T16:03:42;28.80;1.00
1377;DHT22;682;52.502;13.488;2023-09-07T16:06:09;28.90;1.00
1377;DHT22;682;52.502;13.488;2023-09-07T16:08:37;28.90;1.00
1377;DHT22;682;52.502;13.488;2023-09-07T16:11:04;28.90;1.00
1377;DHT22;682;52.502;13.488;2023-09-07T16:13:31;28.70;1.00
1377;DHT22;682;52.502;13.488;2023-09-07T16:15:58;28.70;1.00
1377;DHT22;682;52.502;13.488;2023-09-07T16:18:25;28.60;1.00
1377;DHT22;682;52.502;13.488;2023-09-07T16:20:52;28.60;1.00
1377;DHT22;682;52.502;13.488;2023-09-07T16:23:19;28.50;1.00
1377;DHT22;682;52.502;13.488;2023-09-07T16:25:48;28.50;1.00
1377;DHT22;682;52.502;13.488;2023-09-07T16:28:14;28.40;1.00
1377;DHT22;682;52.502;13.488;2023-09-07T16:30:42;28.40;1.00